createdAt,value
2018-12-30T00:02:41.033Z,99.90
2018-12-30T00:05:09.905Z,99.90
2018-12-30T00:07:38.082Z,99.90
2018-12-30T00:10:06.136Z,99.90
2018-12-30T00:12:34.054Z,99.90
2018-12-30T00:15:02.220Z,99.90
2018-12-30T00:17:30.274Z,99.90
2018-12-30T00:19:58.513Z,99.90
2018-12-30T00:22:26.361Z,99.90
2018-12-30T00:24:54.255Z,99.90
2018-12-30T00:27:22.159Z,99.90
2018-12-30T00:29:50.147Z,99.90
2018-12-30T00:32:18.138Z,99.90
2018-12-30T00:34:46.006Z,99.90
2018-12-30T00:37:14.047Z,99.90
2018-12-30T00:39:41.895Z,99.90
2018-12-30T00:42:09.799Z,99.90
2018-12-30T00:44:37.665Z,99.90
2018-12-30T00:47:05.602Z,99.90
2018-12-30T00:49:33.598Z,99.90
2018-12-30T00:52:01.503Z,99.90
2018-12-30T00:54:29.491Z,99.90
2018-12-30T00:56:57.459Z,99.90
2018-12-30T00:59:25.422Z,99.90
2018-12-30T01:01:53.423Z,99.90
2018-12-30T01:04:21.378Z,99.90
2018-12-30T01:06:49.344Z,99.90
2018-12-30T01:09:17.237Z,99.90
2018-12-30T01:11:45.094Z,99.90
2018-12-30T01:14:12.940Z,99.90
2018-12-30T01:16:40.848Z,99.90
2018-12-30T01:19:08.934Z,99.90
2018-12-30T01:21:36.836Z,99.90
2018-12-30T01:24:04.818Z,99.90
2018-12-30T01:26:32.717Z,99.90
2018-12-30T01:29:00.634Z,99.90
2018-12-30T01:31:28.527Z,99.90
2018-12-30T01:33:56.599Z,99.90
2018-12-30T01:36:24.494Z,99.90
2018-12-30T01:38:52.334Z,99.90
2018-12-30T01:41:20.358Z,99.90
2018-12-30T01:43:48.248Z,99.90
2018-12-30T01:46:16.506Z,99.90
2018-12-30T01:48:44.464Z,99.90
2018-12-30T01:51:12.397Z,99.90
2018-12-30T01:53:40.311Z,99.90
2018-12-30T01:56:08.139Z,99.90
2018-12-30T01:58:36.211Z,99.90
2018-12-30T02:01:04.355Z,99.90
2018-12-30T02:03:32.291Z,99.90
2018-12-30T02:06:00.253Z,99.90
2018-12-30T02:08:28.205Z,99.90
2018-12-30T02:10:56.527Z,99.90
2018-12-30T02:13:25.564Z,99.90
2018-12-30T02:15:53.512Z,99.90
2018-12-30T02:18:21.423Z,99.90
2018-12-30T02:20:49.411Z,99.90
2018-12-30T02:23:17.270Z,99.90
2018-12-30T02:25:45.208Z,99.90
2018-12-30T02:28:13.015Z,99.90
2018-12-30T02:30:40.914Z,99.90
2018-12-30T02:33:08.873Z,99.90
2018-12-30T02:35:36.807Z,99.90
2018-12-30T02:38:04.755Z,99.90
2018-12-30T02:40:33.115Z,99.90
2018-12-30T02:43:00.975Z,99.90
2018-12-30T02:45:29.776Z,99.90
2018-12-30T02:47:57.583Z,99.90
2018-12-30T02:50:25.547Z,99.90
2018-12-30T02:52:53.430Z,99.90
2018-12-30T02:55:21.323Z,99.90
2018-12-30T02:57:49.333Z,99.90
2018-12-30T03:00:17.267Z,99.90
2018-12-30T03:02:45.131Z,99.90
2018-12-30T03:05:13.199Z,99.90
2018-12-30T03:07:41.356Z,99.90
2018-12-30T03:10:09.256Z,99.90
2018-12-30T03:12:37.345Z,99.90
2018-12-30T03:15:05.279Z,99.90
2018-12-30T03:17:33.228Z,99.90
2018-12-30T03:20:01.179Z,99.90
2018-12-30T03:22:29.075Z,99.90
2018-12-30T03:24:57.079Z,99.90
2018-12-30T03:31:08.714Z,99.90
2018-12-30T03:33:36.629Z,99.90
2018-12-30T03:36:04.605Z,99.90
2018-12-30T03:38:32.990Z,99.90
2018-12-30T03:41:01.831Z,99.90
2018-12-30T03:43:29.731Z,99.90
2018-12-30T03:45:57.574Z,99.90
2018-12-30T03:48:25.518Z,99.90
2018-12-30T03:50:53.364Z,99.90
2018-12-30T03:53:21.289Z,99.90
2018-12-30T03:55:49.312Z,99.90
2018-12-30T03:58:17.142Z,99.90
2018-12-30T04:00:45.050Z,99.90
2018-12-30T04:03:12.916Z,99.90
2018-12-30T04:05:40.918Z,99.90
2018-12-30T04:08:08.811Z,99.90
2018-12-30T04:10:36.816Z,99.90
2018-12-30T04:13:04.694Z,99.90
2018-12-30T04:15:32.553Z,99.90
2018-12-30T04:18:00.525Z,99.90
2018-12-30T04:20:29.828Z,99.90
2018-12-30T04:22:57.820Z,99.90
2018-12-30T04:25:25.843Z,99.90
2018-12-30T04:27:53.884Z,99.90
2018-12-30T04:30:21.762Z,99.90
2018-12-30T04:32:50.112Z,99.90
2018-12-30T04:35:18.288Z,99.90
2018-12-30T04:37:46.359Z,99.90
2018-12-30T04:40:14.431Z,99.90
2018-12-30T04:42:42.849Z,99.90
2018-12-30T04:45:10.792Z,99.90
2018-12-30T04:47:38.808Z,99.90
2018-12-30T04:50:06.724Z,99.90
2018-12-30T04:52:34.539Z,99.90
2018-12-30T04:55:02.453Z,99.90
2018-12-30T04:57:30.315Z,99.90
2018-12-30T04:59:58.171Z,99.90
2018-12-30T05:02:26.093Z,99.90
2018-12-30T05:04:54.535Z,99.90
2018-12-30T05:07:22.769Z,99.90
2018-12-30T05:09:50.658Z,99.90
2018-12-30T05:12:19.052Z,99.90
2018-12-30T05:14:47.080Z,99.90
2018-12-30T05:17:15.439Z,99.90
2018-12-30T05:19:43.447Z,99.90
2018-12-30T05:22:19.335Z,99.90
2018-12-30T05:24:47.312Z,99.90
2018-12-30T05:27:15.211Z,99.90
2018-12-30T05:29:43.179Z,99.90
2018-12-30T05:32:11.154Z,99.90
2018-12-30T05:34:39.427Z,99.90
2018-12-30T05:37:07.424Z,99.90
2018-12-30T05:39:35.359Z,99.90
2018-12-30T05:42:03.319Z,99.90
2018-12-30T05:44:31.149Z,99.90
2018-12-30T05:46:59.115Z,99.90
2018-12-30T05:49:26.930Z,99.90
2018-12-30T05:51:54.935Z,99.90
2018-12-30T05:54:22.858Z,99.90
2018-12-30T05:56:50.682Z,99.90
2018-12-30T05:59:18.619Z,99.90
2018-12-30T06:01:46.493Z,99.90
2018-12-30T06:04:14.383Z,99.90
2018-12-30T06:06:42.418Z,99.90
2018-12-30T06:09:10.468Z,99.90
2018-12-30T06:11:38.365Z,99.90
2018-12-30T06:14:06.363Z,99.90
2018-12-30T06:16:34.936Z,99.90
2018-12-30T06:19:02.830Z,99.90
2018-12-30T06:21:30.683Z,99.90
2018-12-30T06:23:58.724Z,99.90
2018-12-30T06:26:26.618Z,99.90
2018-12-30T06:28:54.623Z,99.90
2018-12-30T06:31:22.463Z,99.90
2018-12-30T06:33:50.355Z,99.90
2018-12-30T06:36:18.455Z,99.90
2018-12-30T06:38:46.360Z,99.90
2018-12-30T06:41:14.310Z,99.90
2018-12-30T06:43:42.318Z,99.90
2018-12-30T06:46:10.259Z,99.90
2018-12-30T06:48:57.575Z,99.90
2018-12-30T06:51:25.943Z,99.90
2018-12-30T06:53:53.859Z,99.90
2018-12-30T06:56:21.790Z,99.90
2018-12-30T06:58:49.684Z,99.90
2018-12-30T07:01:17.703Z,99.90
2018-12-30T07:03:45.690Z,99.90
2018-12-30T07:06:13.602Z,99.90
2018-12-30T07:08:41.507Z,99.90
2018-12-30T07:11:18.671Z,99.90
2018-12-30T07:13:46.587Z,99.90
2018-12-30T07:16:14.543Z,99.90
2018-12-30T07:18:42.425Z,99.90
2018-12-30T07:21:10.239Z,99.90
2018-12-30T07:23:38.121Z,99.90
2018-12-30T07:26:06.095Z,99.90
2018-12-30T07:28:34.015Z,99.90
2018-12-30T07:31:01.839Z,99.90
2018-12-30T07:33:29.837Z,99.90
2018-12-30T07:36:10.244Z,99.90
2018-12-30T07:38:38.550Z,99.90
2018-12-30T07:41:06.675Z,99.90
2018-12-30T07:43:34.595Z,99.90
2018-12-30T07:46:02.638Z,99.90
2018-12-30T07:48:30.979Z,99.90
2018-12-30T07:50:58.950Z,99.90
2018-12-30T07:53:26.880Z,99.90
2018-12-30T07:55:54.867Z,99.90
2018-12-30T07:58:22.747Z,99.90
2018-12-30T08:00:50.696Z,99.90
2018-12-30T08:03:18.576Z,99.90
2018-12-30T08:05:46.400Z,99.90
2018-12-30T08:08:14.290Z,99.90
2018-12-30T08:10:42.248Z,99.90
2018-12-30T08:13:10.135Z,99.90
2018-12-30T08:15:38.070Z,99.90
2018-12-30T08:18:06.004Z,99.90
2018-12-30T08:20:33.875Z,99.90
2018-12-30T08:23:01.726Z,99.90
2018-12-30T08:25:30.920Z,99.90
2018-12-30T08:27:58.724Z,99.90
2018-12-30T08:30:26.754Z,99.90
2018-12-30T08:32:54.699Z,99.90
2018-12-30T08:35:23.031Z,99.90
2018-12-30T08:37:50.977Z,99.90
2018-12-30T08:40:19.156Z,99.90
2018-12-30T08:42:47.120Z,99.90
2018-12-30T08:45:15.902Z,99.90
2018-12-30T08:47:43.869Z,99.90
2018-12-30T08:50:11.731Z,99.90
2018-12-30T08:52:39.648Z,99.90
2018-12-30T08:55:07.651Z,99.90
2018-12-30T08:57:35.587Z,99.90
2018-12-30T09:00:04.407Z,99.90
2018-12-30T09:02:32.366Z,99.90
2018-12-30T09:05:00.285Z,99.90
2018-12-30T09:07:28.288Z,99.90
2018-12-30T09:09:56.239Z,99.90
2018-12-30T09:12:24.199Z,99.90
2018-12-30T09:14:58.782Z,99.90
2018-12-30T09:17:27.022Z,99.90
2018-12-30T09:19:54.947Z,99.90
2018-12-30T09:22:22.851Z,99.90
2018-12-30T09:24:50.756Z,99.90
2018-12-30T09:27:18.730Z,99.90
2018-12-30T09:29:46.731Z,99.90
2018-12-30T09:32:14.999Z,99.90
2018-12-30T09:34:42.920Z,99.90
2018-12-30T09:37:10.930Z,99.90
2018-12-30T09:39:38.917Z,99.90
2018-12-30T09:42:06.890Z,99.90
2018-12-30T09:44:34.790Z,99.90
2018-12-30T09:47:02.884Z,99.90
2018-12-30T09:49:31.243Z,99.90
2018-12-30T09:51:59.231Z,99.90
2018-12-30T09:54:27.391Z,99.90
2018-12-30T09:56:55.191Z,99.90
2018-12-30T09:59:23.182Z,99.90
2018-12-30T10:01:51.339Z,99.90
2018-12-30T10:04:19.275Z,99.90
2018-12-30T10:06:47.188Z,99.90
2018-12-30T10:09:15.055Z,99.90
2018-12-30T10:11:42.931Z,99.90
2018-12-30T10:14:20.852Z,99.90
2018-12-30T10:16:48.791Z,99.90
2018-12-30T10:19:16.776Z,99.90
2018-12-30T10:21:44.642Z,99.90
2018-12-30T10:24:12.575Z,99.90
2018-12-30T10:26:40.475Z,99.90
2018-12-30T10:29:08.447Z,99.90
2018-12-30T10:31:36.437Z,99.90
2018-12-30T10:34:04.291Z,99.90
2018-12-30T10:36:32.175Z,99.90
2018-12-30T10:39:00.126Z,99.90
2018-12-30T10:41:28.078Z,99.90
2018-12-30T10:43:56.260Z,99.90
2018-12-30T10:46:24.111Z,99.90
2018-12-30T10:48:52.045Z,99.90
2018-12-30T10:51:20.069Z,99.90
2018-12-30T10:53:47.938Z,99.90
2018-12-30T10:56:15.939Z,99.90
2018-12-30T10:58:44.083Z,99.90
2018-12-30T11:01:12.115Z,99.90
2018-12-30T11:03:40.137Z,99.90
2018-12-30T11:06:08.195Z,99.90
2018-12-30T11:08:36.175Z,99.90
2018-12-30T11:11:04.069Z,99.90
2018-12-30T11:13:32.031Z,99.90
2018-12-30T11:16:00.035Z,99.90
2018-12-30T11:18:27.997Z,99.90
2018-12-30T11:20:55.927Z,99.90
2018-12-30T11:23:23.952Z,99.90
2018-12-30T11:25:51.895Z,99.90
2018-12-30T11:28:19.787Z,99.90
2018-12-30T11:30:47.748Z,99.90
2018-12-30T11:33:15.838Z,99.90
2018-12-30T11:35:43.855Z,99.90
2018-12-30T11:38:12.430Z,99.90
2018-12-30T11:40:40.289Z,99.90
2018-12-30T11:43:08.263Z,99.90
2018-12-30T11:45:36.688Z,99.90
2018-12-30T11:48:04.610Z,99.90
2018-12-30T11:50:32.583Z,99.90
2018-12-30T11:53:00.703Z,99.90
2018-12-30T11:55:29.648Z,99.90
2018-12-30T11:57:57.572Z,99.90
2018-12-30T12:00:25.456Z,99.90
2018-12-30T12:02:53.360Z,99.90
2018-12-30T12:05:21.281Z,99.90
2018-12-30T12:07:49.216Z,99.90
2018-12-30T12:10:17.647Z,99.90
2018-12-30T12:12:49.121Z,99.90
2018-12-30T12:15:38.688Z,99.90
2018-12-30T12:18:07.044Z,99.90
2018-12-30T12:20:35.351Z,99.90
2018-12-30T12:23:03.291Z,99.90
2018-12-30T12:25:31.299Z,99.90
2018-12-30T12:27:59.280Z,99.00
2018-12-30T12:30:27.411Z,98.90
2018-12-30T12:32:55.487Z,97.80
2018-12-30T12:35:23.934Z,98.70
2018-12-30T12:37:51.839Z,98.00
2018-12-30T12:40:19.963Z,97.00
2018-12-30T12:42:47.850Z,96.90
2018-12-30T12:45:16.175Z,95.90
2018-12-30T12:47:44.062Z,96.00
2018-12-30T12:50:11.959Z,94.60
2018-12-30T12:52:40.295Z,94.70
2018-12-30T12:55:08.615Z,94.30
2018-12-30T12:57:36.635Z,94.90
2018-12-30T13:00:06.617Z,94.10
2018-12-30T13:02:34.675Z,94.90
2018-12-30T13:05:02.633Z,94.90
2018-12-30T13:07:30.594Z,94.30
2018-12-30T13:09:58.434Z,94.80
2018-12-30T13:12:26.268Z,94.60
2018-12-30T13:15:23.214Z,94.00
2018-12-30T13:17:50.612Z,94.20
2018-12-30T13:20:19.386Z,93.60
2018-12-30T13:22:47.332Z,93.60
2018-12-30T13:25:15.238Z,93.50
2018-12-30T13:27:43.491Z,93.50
2018-12-30T13:30:11.443Z,93.60
2018-12-30T13:32:41.030Z,93.50
2018-12-30T13:35:09.063Z,93.40
2018-12-30T13:37:37.484Z,93.30
2018-12-30T13:40:06.127Z,93.60
2018-12-30T13:42:34.043Z,93.60
2018-12-30T13:45:02.133Z,92.90
2018-12-30T13:47:30.079Z,92.50
2018-12-30T13:49:58.320Z,92.60
2018-12-30T13:52:26.187Z,92.90
2018-12-30T13:54:54.326Z,92.90
2018-12-30T13:57:22.287Z,93.00
2018-12-30T13:59:50.192Z,92.70
2018-12-30T14:02:18.236Z,93.20
2018-12-30T14:04:46.195Z,93.10
2018-12-30T14:07:14.618Z,93.40
2018-12-30T14:09:42.530Z,93.20
2018-12-30T14:12:10.495Z,93.30
2018-12-30T14:15:14.735Z,93.20
2018-12-30T14:17:42.827Z,93.20
2018-12-30T14:20:10.786Z,93.40
2018-12-30T14:22:38.852Z,92.90
2018-12-30T14:25:07.179Z,92.70
2018-12-30T14:27:35.369Z,92.70
2018-12-30T14:30:03.851Z,93.30
2018-12-30T14:32:31.699Z,93.20
2018-12-30T14:34:59.751Z,93.20
2018-12-30T14:37:27.819Z,93.60
2018-12-30T14:39:55.707Z,94.10
2018-12-30T14:42:23.542Z,94.10
2018-12-30T14:44:51.454Z,94.00
2018-12-30T14:47:19.448Z,94.30
2018-12-30T14:49:47.420Z,94.70
2018-12-30T14:52:15.307Z,95.10
2018-12-30T14:54:43.158Z,95.30
2018-12-30T14:57:11.162Z,95.40
2018-12-30T14:59:39.166Z,95.30
2018-12-30T15:02:07.170Z,95.10
2018-12-30T15:04:35.232Z,95.10
2018-12-30T15:07:03.140Z,95.20
2018-12-30T15:09:35.655Z,95.10
2018-12-30T15:12:00.853Z,94.80
2018-12-30T15:14:53.102Z,94.90
2018-12-30T15:17:21.115Z,94.70
2018-12-30T15:19:49.045Z,94.70
2018-12-30T15:22:17.068Z,94.70
2018-12-30T15:24:45.061Z,94.30
2018-12-30T15:27:12.989Z,94.60
2018-12-30T15:29:41.071Z,94.60
2018-12-30T15:32:08.950Z,94.00
2018-12-30T15:34:36.870Z,93.60
2018-12-30T15:37:04.782Z,92.90
2018-12-30T15:39:32.917Z,92.00
2018-12-30T15:42:00.833Z,91.50
2018-12-30T15:44:28.798Z,91.00
2018-12-30T15:46:56.688Z,90.40
2018-12-30T15:49:24.632Z,90.10
2018-12-30T15:51:52.531Z,89.20
2018-12-30T15:54:20.444Z,87.00
2018-12-30T15:56:48.375Z,85.60
2018-12-30T15:59:16.751Z,84.80
2018-12-30T16:01:44.727Z,84.60
2018-12-30T16:04:12.715Z,83.80
2018-12-30T16:06:40.721Z,83.20
2018-12-30T16:09:08.727Z,82.40
2018-12-30T16:11:36.743Z,81.70
2018-12-30T16:14:04.769Z,80.80
2018-12-30T16:16:32.694Z,80.20
2018-12-30T16:19:00.656Z,79.50
2018-12-30T16:21:28.668Z,79.40
2018-12-30T16:23:56.604Z,78.10
2018-12-30T16:26:24.819Z,78.30
2018-12-30T16:28:52.710Z,78.30
2018-12-30T16:31:27.894Z,79.10
2018-12-30T16:33:50.387Z,78.50
2018-12-30T16:36:18.284Z,77.50
2018-12-30T16:38:46.617Z,77.80
2018-12-30T16:41:14.592Z,78.40
2018-12-30T16:43:42.535Z,77.10
2018-12-30T16:46:10.533Z,76.70
2018-12-30T16:48:38.466Z,77.00
2018-12-30T16:51:40.472Z,76.20
2018-12-30T16:55:21.179Z,76.30
2018-12-30T16:59:05.315Z,76.70
2018-12-30T17:02:26.410Z,76.50
2018-12-30T17:06:21.751Z,75.20
2018-12-30T17:09:37.524Z,75.20
2018-12-30T17:12:41.899Z,74.10
2018-12-30T17:15:54.027Z,73.20
2018-12-30T17:18:19.933Z,73.00
2018-12-30T17:20:47.998Z,71.90
2018-12-30T17:23:15.975Z,72.60
2018-12-30T17:25:43.885Z,73.10
2018-12-30T17:28:11.919Z,72.50
2018-12-30T17:30:39.842Z,72.30
2018-12-30T17:33:07.895Z,72.20
2018-12-30T17:35:36.071Z,71.30
2018-12-30T17:38:04.254Z,70.80
2018-12-30T17:40:38.376Z,70.70
2018-12-30T17:43:02.115Z,71.20
2018-12-30T17:45:30.806Z,72.10
2018-12-30T17:47:59.080Z,71.90
2018-12-30T17:50:27.726Z,71.80
2018-12-30T17:52:55.599Z,70.10
2018-12-30T17:55:23.616Z,69.70
2018-12-30T17:57:51.571Z,70.20
2018-12-30T18:00:20.174Z,69.90
2018-12-30T18:02:48.556Z,69.00
2018-12-30T18:05:16.505Z,69.50
2018-12-30T18:07:47.575Z,70.10
2018-12-30T18:10:15.844Z,70.20
2018-12-30T18:12:43.758Z,69.70
2018-12-30T18:15:29.990Z,69.80
2018-12-30T18:17:58.006Z,69.70
2018-12-30T18:20:25.952Z,69.50
2018-12-30T18:22:53.914Z,69.90
2018-12-30T18:25:21.859Z,69.80
2018-12-30T18:27:49.807Z,69.60
2018-12-30T18:30:17.957Z,69.70
2018-12-30T18:32:45.919Z,70.20
2018-12-30T18:35:13.875Z,68.70
2018-12-30T18:37:41.731Z,69.10
2018-12-30T18:40:09.663Z,68.30
2018-12-30T18:42:37.586Z,68.00
2018-12-30T18:45:06.211Z,69.10
2018-12-30T18:47:34.173Z,69.60
2018-12-30T18:50:02.227Z,70.70
2018-12-30T18:52:30.189Z,70.10
2018-12-30T18:54:58.358Z,70.40
2018-12-30T18:57:26.336Z,70.10
2018-12-30T18:59:54.174Z,70.00
2018-12-30T19:02:22.142Z,69.60
2018-12-30T19:04:49.985Z,69.90
2018-12-30T19:07:17.994Z,70.10
2018-12-30T19:09:45.971Z,70.70
2018-12-30T19:12:14.162Z,70.00
2018-12-30T19:15:03.841Z,68.90
2018-12-30T19:17:31.889Z,68.60
2018-12-30T19:19:59.809Z,68.70
2018-12-30T19:22:27.732Z,68.50
2018-12-30T19:24:55.730Z,69.20
2018-12-30T19:27:27.405Z,69.60
2018-12-30T19:29:58.140Z,69.60
2018-12-30T19:32:27.838Z,69.50
2018-12-30T19:35:00.781Z,69.20
2018-12-30T19:37:29.503Z,69.60
2018-12-30T19:40:01.224Z,67.70
2018-12-30T19:42:33.444Z,68.80
2018-12-30T19:45:05.080Z,69.50
2018-12-30T19:47:38.050Z,69.00
2018-12-30T19:50:10.063Z,69.30
2018-12-30T19:52:42.125Z,69.50
2018-12-30T19:55:11.172Z,71.00
2018-12-30T19:57:43.096Z,71.20
2018-12-30T20:00:14.492Z,71.00
2018-12-30T20:02:46.709Z,70.70
2018-12-30T20:05:14.944Z,71.80
2018-12-30T20:07:42.848Z,73.00
2018-12-30T20:10:11.043Z,73.30
2018-12-30T20:12:39.040Z,73.60
2018-12-30T20:15:28.926Z,73.00
2018-12-30T20:17:56.866Z,73.00
2018-12-30T20:20:24.969Z,71.90
2018-12-30T20:22:52.984Z,71.60
2018-12-30T20:25:21.127Z,70.90
2018-12-30T20:27:49.090Z,71.80
2018-12-30T20:30:17.093Z,72.40
2018-12-30T20:32:44.938Z,73.20
2018-12-30T20:35:13.030Z,73.00
2018-12-30T20:37:40.981Z,73.80
2018-12-30T20:40:08.820Z,73.00
2018-12-30T20:42:36.780Z,73.00
2018-12-30T20:45:05.083Z,72.90
2018-12-30T20:47:33.072Z,72.80
2018-12-30T20:50:01.104Z,73.90
2018-12-30T20:52:29.108Z,74.30
2018-12-30T20:54:57.160Z,74.50
2018-12-30T20:57:25.083Z,74.60
2018-12-30T20:59:53.014Z,74.90
2018-12-30T21:02:21.140Z,75.50
2018-12-30T21:04:49.179Z,75.50
2018-12-30T21:07:17.151Z,75.70
2018-12-30T21:09:45.277Z,76.20
2018-12-30T21:12:14.660Z,77.20
2018-12-30T21:15:10.659Z,77.20
2018-12-30T21:17:38.646Z,78.00
2018-12-30T21:20:06.781Z,78.70
2018-12-30T21:22:34.793Z,79.10
2018-12-30T21:25:02.936Z,79.30
2018-12-30T21:27:39.562Z,79.20
2018-12-30T21:30:08.198Z,79.00
2018-12-30T21:32:36.231Z,79.30
2018-12-30T21:35:04.631Z,80.90
2018-12-30T21:37:32.707Z,79.50
2018-12-30T21:40:00.626Z,78.40
2018-12-30T21:42:28.947Z,79.60
2018-12-30T21:44:56.994Z,78.90
2018-12-30T21:47:24.910Z,78.80
2018-12-30T21:49:53.467Z,78.70
2018-12-30T21:52:21.525Z,79.00
2018-12-30T21:54:49.498Z,78.40
2018-12-30T21:57:17.486Z,78.40
2018-12-30T21:59:45.403Z,78.90
2018-12-30T22:02:13.324Z,78.60
2018-12-30T22:04:41.804Z,78.60
2018-12-30T22:07:09.711Z,78.40
2018-12-30T22:09:37.667Z,78.80
2018-12-30T22:12:05.623Z,79.30
2018-12-30T22:14:56.934Z,78.90
2018-12-30T22:17:24.689Z,78.90
2018-12-30T22:19:52.828Z,78.50
2018-12-30T22:22:20.702Z,78.80
2018-12-30T22:24:48.566Z,79.20
2018-12-30T22:27:16.503Z,78.90
2018-12-30T22:29:44.328Z,79.90
2018-12-30T22:32:12.255Z,79.10
2018-12-30T22:34:40.160Z,79.00
2018-12-30T22:37:08.131Z,79.20
2018-12-30T22:39:36.124Z,78.60
2018-12-30T22:42:03.979Z,77.90
2018-12-30T22:44:31.854Z,76.70
2018-12-30T22:46:59.702Z,76.20
2018-12-30T22:49:27.603Z,76.80
2018-12-30T22:51:55.595Z,76.60
2018-12-30T22:54:23.534Z,75.00
2018-12-30T22:56:51.523Z,73.10
2018-12-30T22:59:19.572Z,72.50
2018-12-30T23:01:48.031Z,73.80
2018-12-30T23:04:15.941Z,74.40
2018-12-30T23:06:43.913Z,74.60
2018-12-30T23:09:12.035Z,75.00
2018-12-30T23:11:40.084Z,74.90
2018-12-30T23:14:08.215Z,74.40
2018-12-30T23:16:36.099Z,74.10
2018-12-30T23:19:04.154Z,74.00
2018-12-30T23:21:32.209Z,73.80
2018-12-30T23:24:00.115Z,73.40
2018-12-30T23:26:28.127Z,73.20
2018-12-30T23:28:56.066Z,73.50
2018-12-30T23:31:23.953Z,73.20
2018-12-30T23:33:51.939Z,73.70
2018-12-30T23:36:19.787Z,73.00
2018-12-30T23:38:47.679Z,73.00
2018-12-30T23:41:15.647Z,72.70
2018-12-30T23:43:43.643Z,71.40
2018-12-30T23:46:11.646Z,70.60
2018-12-30T23:48:39.562Z,69.80
2018-12-30T23:51:07.484Z,69.80
2018-12-30T23:53:35.390Z,70.60
2018-12-30T23:56:03.462Z,71.50
2018-12-30T23:58:31.314Z,71.80
